sensor_id;sensor_type;location;lat;lon;timestamp;P1;durP1;ratioP1;P2;durP2;ratioP2
69170;SDS011;56279;47.902;12.308;2023-05-07T00:01:39;7.43;;;4.45;;
69170;SDS011;56279;47.902;12.308;2023-05-07T00:03:40;6.75;;;4.20;;
69170;SDS011;56279;47.902;12.308;2023-05-07T00:05:42;6.50;;;3.95;;
69170;SDS011;56279;47.902;12.308;2023-05-07T00:07:43;9.00;;;4.20;;
69170;SDS011;56279;47.902;12.308;2023-05-07T00:09:49;6.60;;;3.73;;
69170;SDS011;56279;47.902;12.308;2023-05-07T00:11:51;7.18;;;4.50;;
69170;SDS011;56279;47.902;12.308;2023-05-07T00:13:52;7.05;;;4.47;;
69170;SDS011;56279;47.902;12.308;2023-05-07T00:15:54;7.93;;;4.40;;
69170;SDS011;56279;47.902;12.308;2023-05-07T00:17:56;7.22;;;4.45;;
69170;SDS011;56279;47.902;12.308;2023-05-07T00:20:00;7.27;;;4.20;;
69170;SDS011;56279;47.902;12.308;2023-05-07T00:22:01;6.30;;;4.05;;
69170;SDS011;56279;47.902;12.308;2023-05-07T00:24:05;7.10;;;4.25;;
69170;SDS011;56279;47.902;12.308;2023-05-07T00:26:07;7.13;;;4.63;;
69170;SDS011;56279;47.902;12.308;2023-05-07T00:28:08;9.38;;;4.35;;
69170;SDS011;56279;47.902;12.308;2023-05-07T00:30:09;7.17;;;4.30;;
69170;SDS011;56279;47.902;12.308;2023-05-07T00:32:11;6.53;;;4.50;;
69170;SDS011;56279;47.902;12.308;2023-05-07T00:34:12;6.70;;;3.70;;
69170;SDS011;56279;47.902;12.308;2023-05-07T00:36:13;6.90;;;4.22;;
69170;SDS011;56279;47.902;12.308;2023-05-07T00:38:15;7.07;;;4.07;;
69170;SDS011;56279;47.902;12.308;2023-05-07T00:40:16;6.30;;;4.03;;
69170;SDS011;56279;47.902;12.308;2023-05-07T00:42:17;8.25;;;4.10;;
69170;SDS011;56279;47.902;12.308;2023-05-07T00:44:19;6.00;;;3.97;;
69170;SDS011;56279;47.902;12.308;2023-05-07T00:46:20;9.48;;;3.80;;
69170;SDS011;56279;47.902;12.308;2023-05-07T00:48:22;7.13;;;3.85;;
69170;SDS011;56279;47.902;12.308;2023-05-07T00:50:25;6.77;;;4.20;;
69170;SDS011;56279;47.902;12.308;2023-05-07T00:52:27;7.68;;;3.90;;
69170;SDS011;56279;47.902;12.308;2023-05-07T00:54:30;6.28;;;3.92;;
69170;SDS011;56279;47.902;12.308;2023-05-07T00:56:32;6.22;;;3.65;;
69170;SDS011;56279;47.902;12.308;2023-05-07T00:58:33;7.10;;;4.10;;
69170;SDS011;56279;47.902;12.308;2023-05-07T01:00:35;7.47;;;3.93;;
69170;SDS011;56279;47.902;12.308;2023-05-07T01:02:38;6.45;;;4.10;;
69170;SDS011;56279;47.902;12.308;2023-05-07T01:04:40;7.18;;;3.75;;
69170;SDS011;56279;47.902;12.308;2023-05-07T01:06:41;7.43;;;3.95;;
69170;SDS011;56279;47.902;12.308;2023-05-07T01:08:42;12.23;;;4.30;;
69170;SDS011;56279;47.902;12.308;2023-05-07T01:13:01;6.95;;;4.05;;
69170;SDS011;56279;47.902;12.308;2023-05-07T01:15:03;7.75;;;4.25;;
69170;SDS011;56279;47.902;12.308;2023-05-07T01:17:06;7.00;;;4.00;;
69170;SDS011;56279;47.902;12.308;2023-05-07T01:19:08;6.50;;;4.10;;
69170;SDS011;56279;47.902;12.308;2023-05-07T01:21:11;5.87;;;3.93;;
69170;SDS011;56279;47.902;12.308;2023-05-07T01:23:16;5.95;;;4.28;;
69170;SDS011;56279;47.902;12.308;2023-05-07T01:25:18;8.38;;;4.05;;
69170;SDS011;56279;47.902;12.308;2023-05-07T01:27:24;6.60;;;4.22;;
69170;SDS011;56279;47.902;12.308;2023-05-07T01:29:27;7.30;;;4.38;;
69170;SDS011;56279;47.902;12.308;2023-05-07T01:31:29;9.97;;;3.80;;
69170;SDS011;56279;47.902;12.308;2023-05-07T01:33:32;6.53;;;3.35;;
69170;SDS011;56279;47.902;12.308;2023-05-07T01:35:37;7.25;;;3.83;;
69170;SDS011;56279;47.902;12.308;2023-05-07T01:37:41;6.03;;;3.70;;
69170;SDS011;56279;47.902;12.308;2023-05-07T01:39:42;7.00;;;3.75;;
69170;SDS011;56279;47.902;12.308;2023-05-07T01:41:44;8.40;;;3.70;;
69170;SDS011;56279;47.902;12.308;2023-05-07T01:43:46;6.72;;;3.97;;
69170;SDS011;56279;47.902;12.308;2023-05-07T01:45:49;9.65;;;3.95;;
69170;SDS011;56279;47.902;12.308;2023-05-07T01:47:51;9.38;;;3.88;;
69170;SDS011;56279;47.902;12.308;2023-05-07T01:49:53;5.53;;;3.38;;
69170;SDS011;56279;47.902;12.308;2023-05-07T01:51:57;5.60;;;3.40;;
69170;SDS011;56279;47.902;12.308;2023-05-07T01:53:59;5.47;;;3.55;;
69170;SDS011;56279;47.902;12.308;2023-05-07T01:56:01;6.40;;;3.83;;
69170;SDS011;56279;47.902;12.308;2023-05-07T01:58:05;7.63;;;4.15;;
69170;SDS011;56279;47.902;12.308;2023-05-07T02:00:07;6.15;;;3.80;;
69170;SDS011;56279;47.902;12.308;2023-05-07T02:02:19;8.30;;;4.07;;
69170;SDS011;56279;47.902;12.308;2023-05-07T02:04:21;5.80;;;3.78;;
69170;SDS011;56279;47.902;12.308;2023-05-07T02:06:22;6.85;;;3.97;;
69170;SDS011;56279;47.902;12.308;2023-05-07T02:08:25;7.43;;;4.22;;
69170;SDS011;56279;47.902;12.308;2023-05-07T02:10:27;7.03;;;3.92;;
69170;SDS011;56279;47.902;12.308;2023-05-07T02:12:28;7.90;;;3.90;;
69170;SDS011;56279;47.902;12.308;2023-05-07T02:14:29;8.65;;;4.18;;
69170;SDS011;56279;47.902;12.308;2023-05-07T02:16:31;6.82;;;4.10;;
69170;SDS011;56279;47.902;12.308;2023-05-07T02:18:32;5.95;;;3.65;;
69170;SDS011;56279;47.902;12.308;2023-05-07T02:20:34;7.13;;;4.32;;
69170;SDS011;56279;47.902;12.308;2023-05-07T02:22:37;5.80;;;3.90;;
69170;SDS011;56279;47.902;12.308;2023-05-07T02:24:38;6.97;;;3.88;;
69170;SDS011;56279;47.902;12.308;2023-05-07T02:26:40;10.10;;;3.97;;
69170;SDS011;56279;47.902;12.308;2023-05-07T02:28:42;6.25;;;3.67;;
69170;SDS011;56279;47.902;12.308;2023-05-07T02:30:43;7.05;;;4.00;;
69170;SDS011;56279;47.902;12.308;2023-05-07T02:32:45;6.63;;;4.20;;
69170;SDS011;56279;47.902;12.308;2023-05-07T02:34:46;5.43;;;3.47;;
69170;SDS011;56279;47.902;12.308;2023-05-07T02:36:47;9.73;;;3.60;;
69170;SDS011;56279;47.902;12.308;2023-05-07T02:38:52;6.90;;;3.95;;
69170;SDS011;56279;47.902;12.308;2023-05-07T02:40:53;7.50;;;4.05;;
69170;SDS011;56279;47.902;12.308;2023-05-07T02:42:54;7.77;;;4.20;;
69170;SDS011;56279;47.902;12.308;2023-05-07T02:44:56;6.35;;;3.85;;
69170;SDS011;56279;47.902;12.308;2023-05-07T02:46:57;6.32;;;3.72;;
69170;SDS011;56279;47.902;12.308;2023-05-07T02:48:59;7.07;;;3.90;;
69170;SDS011;56279;47.902;12.308;2023-05-07T02:51:00;7.35;;;3.70;;
69170;SDS011;56279;47.902;12.308;2023-05-07T02:53:02;7.73;;;4.00;;
69170;SDS011;56279;47.902;12.308;2023-05-07T02:55:04;8.15;;;3.70;;
69170;SDS011;56279;47.902;12.308;2023-05-07T02:57:06;6.13;;;4.10;;
69170;SDS011;56279;47.902;12.308;2023-05-07T02:59:07;6.03;;;3.67;;
69170;SDS011;56279;47.902;12.308;2023-05-07T03:01:13;6.47;;;4.20;;
69170;SDS011;56279;47.902;12.308;2023-05-07T03:03:35;6.93;;;3.73;;
69170;SDS011;56279;47.902;12.308;2023-05-07T03:05:37;6.13;;;3.80;;
69170;SDS011;56279;47.902;12.308;2023-05-07T03:07:38;6.63;;;3.95;;
69170;SDS011;56279;47.902;12.308;2023-05-07T03:09:40;6.20;;;4.00;;
69170;SDS011;56279;47.902;12.308;2023-05-07T03:11:42;6.40;;;3.80;;
69170;SDS011;56279;47.902;12.308;2023-05-07T03:13:43;6.17;;;4.10;;
69170;SDS011;56279;47.902;12.308;2023-05-07T03:15:45;6.72;;;4.10;;
69170;SDS011;56279;47.902;12.308;2023-05-07T03:17:46;8.40;;;4.53;;
69170;SDS011;56279;47.902;12.308;2023-05-07T03:19:48;6.88;;;4.10;;
69170;SDS011;56279;47.902;12.308;2023-05-07T03:21:49;13.85;;;4.88;;
69170;SDS011;56279;47.902;12.308;2023-05-07T03:23:51;6.70;;;4.10;;
69170;SDS011;56279;47.902;12.308;2023-05-07T03:25:52;6.55;;;4.10;;
69170;SDS011;56279;47.902;12.308;2023-05-07T03:27:53;6.35;;;4.10;;
69170;SDS011;56279;47.902;12.308;2023-05-07T03:29:58;8.43;;;4.40;;
69170;SDS011;56279;47.902;12.308;2023-05-07T03:32:00;7.78;;;4.40;;
69170;SDS011;56279;47.902;12.308;2023-05-07T03:34:02;9.27;;;4.37;;
69170;SDS011;56279;47.902;12.308;2023-05-07T03:36:03;11.07;;;4.63;;
69170;SDS011;56279;47.902;12.308;2023-05-07T03:38:05;9.77;;;4.70;;
69170;SDS011;56279;47.902;12.308;2023-05-07T03:40:10;6.60;;;3.92;;
69170;SDS011;56279;47.902;12.308;2023-05-07T03:42:18;7.97;;;4.35;;
69170;SDS011;56279;47.902;12.308;2023-05-07T03:44:23;7.40;;;3.70;;
69170;SDS011;56279;47.902;12.308;2023-05-07T03:46:26;6.50;;;4.03;;
69170;SDS011;56279;47.902;12.308;2023-05-07T03:48:29;6.07;;;3.78;;
69170;SDS011;56279;47.902;12.308;2023-05-07T03:50:32;5.45;;;3.55;;
69170;SDS011;56279;47.902;12.308;2023-05-07T03:52:35;12.02;;;3.88;;
69170;SDS011;56279;47.902;12.308;2023-05-07T03:54:37;6.33;;;4.13;;
69170;SDS011;56279;47.902;12.308;2023-05-07T03:56:38;7.22;;;4.43;;
69170;SDS011;56279;47.902;12.308;2023-05-07T03:58:40;7.90;;;4.35;;
69170;SDS011;56279;47.902;12.308;2023-05-07T04:00:44;7.18;;;4.47;;
69170;SDS011;56279;47.902;12.308;2023-05-07T04:03:00;7.85;;;4.53;;
69170;SDS011;56279;47.902;12.308;2023-05-07T04:05:05;9.57;;;4.30;;
69170;SDS011;56279;47.902;12.308;2023-05-07T04:07:06;7.55;;;4.85;;
69170;SDS011;56279;47.902;12.308;2023-05-07T04:09:27;7.82;;;4.82;;
69170;SDS011;56279;47.902;12.308;2023-05-07T04:11:29;8.98;;;4.38;;
69170;SDS011;56279;47.902;12.308;2023-05-07T04:13:30;7.03;;;4.53;;
69170;SDS011;56279;47.902;12.308;2023-05-07T04:15:32;7.77;;;4.70;;
69170;SDS011;56279;47.902;12.308;2023-05-07T04:17:33;7.80;;;4.43;;
69170;SDS011;56279;47.902;12.308;2023-05-07T04:19:36;7.82;;;4.38;;
69170;SDS011;56279;47.902;12.308;2023-05-07T04:21:37;6.57;;;4.32;;
69170;SDS011;56279;47.902;12.308;2023-05-07T04:23:38;10.45;;;4.07;;
69170;SDS011;56279;47.902;12.308;2023-05-07T04:25:44;6.87;;;4.37;;
69170;SDS011;56279;47.902;12.308;2023-05-07T04:27:56;8.63;;;3.95;;
69170;SDS011;56279;47.902;12.308;2023-05-07T04:30:01;5.55;;;3.38;;
69170;SDS011;56279;47.902;12.308;2023-05-07T04:32:06;7.53;;;4.32;;
69170;SDS011;56279;47.902;12.308;2023-05-07T04:34:08;5.63;;;3.70;;
69170;SDS011;56279;47.902;12.308;2023-05-07T04:36:09;6.97;;;4.47;;
69170;SDS011;56279;47.902;12.308;2023-05-07T04:38:19;5.68;;;3.55;;
69170;SDS011;56279;47.902;12.308;2023-05-07T04:40:21;6.53;;;3.80;;
69170;SDS011;56279;47.902;12.308;2023-05-07T04:42:23;7.97;;;3.97;;
69170;SDS011;56279;47.902;12.308;2023-05-07T04:44:25;6.57;;;3.72;;
69170;SDS011;56279;47.902;12.308;2023-05-07T04:46:27;5.83;;;3.70;;
69170;SDS011;56279;47.902;12.308;2023-05-07T04:48:31;6.25;;;3.88;;
69170;SDS011;56279;47.902;12.308;2023-05-07T04:50:34;5.88;;;3.88;;
69170;SDS011;56279;47.902;12.308;2023-05-07T04:52:37;6.55;;;4.30;;
69170;SDS011;56279;47.902;12.308;2023-05-07T04:54:39;5.97;;;4.18;;
69170;SDS011;56279;47.902;12.308;2023-05-07T04:56:42;7.13;;;4.13;;
69170;SDS011;56279;47.902;12.308;2023-05-07T04:58:44;6.82;;;4.10;;
69170;SDS011;56279;47.902;12.308;2023-05-07T05:00:46;7.20;;;4.15;;
69170;SDS011;56279;47.902;12.308;2023-05-07T05:02:47;7.97;;;4.20;;
69170;SDS011;56279;47.902;12.308;2023-05-07T05:04:53;6.30;;;4.07;;
69170;SDS011;56279;47.902;12.308;2023-05-07T05:06:54;5.27;;;3.50;;
69170;SDS011;56279;47.902;12.308;2023-05-07T05:08:57;6.60;;;3.88;;
69170;SDS011;56279;47.902;12.308;2023-05-07T05:11:00;5.80;;;3.83;;
69170;SDS011;56279;47.902;12.308;2023-05-07T05:13:03;6.53;;;4.10;;
69170;SDS011;56279;47.902;12.308;2023-05-07T05:15:06;6.50;;;4.30;;
69170;SDS011;56279;47.902;12.308;2023-05-07T05:17:08;6.97;;;4.13;;
69170;SDS011;56279;47.902;12.308;2023-05-07T05:19:10;7.82;;;4.13;;
69170;SDS011;56279;47.902;12.308;2023-05-07T05:21:14;7.78;;;4.03;;
69170;SDS011;56279;47.902;12.308;2023-05-07T05:23:16;7.18;;;4.00;;
69170;SDS011;56279;47.902;12.308;2023-05-07T05:25:18;5.75;;;3.80;;
69170;SDS011;56279;47.902;12.308;2023-05-07T05:27:21;9.33;;;4.10;;
69170;SDS011;56279;47.902;12.308;2023-05-07T05:29:22;7.90;;;4.20;;
69170;SDS011;56279;47.902;12.308;2023-05-07T05:31:23;6.97;;;3.70;;
69170;SDS011;56279;47.902;12.308;2023-05-07T05:33:25;5.88;;;3.45;;
69170;SDS011;56279;47.902;12.308;2023-05-07T05:35:27;6.18;;;3.63;;
69170;SDS011;56279;47.902;12.308;2023-05-07T05:37:28;7.43;;;4.13;;
69170;SDS011;56279;47.902;12.308;2023-05-07T05:39:31;6.20;;;4.18;;
69170;SDS011;56279;47.902;12.308;2023-05-07T05:41:33;5.93;;;3.60;;
69170;SDS011;56279;47.902;12.308;2023-05-07T05:43:35;8.30;;;3.60;;
69170;SDS011;56279;47.902;12.308;2023-05-07T05:45:37;6.25;;;3.40;;
69170;SDS011;56279;47.902;12.308;2023-05-07T05:47:38;5.50;;;3.47;;
69170;SDS011;56279;47.902;12.308;2023-05-07T05:49:41;6.65;;;3.00;;
69170;SDS011;56279;47.902;12.308;2023-05-07T05:51:44;5.38;;;3.60;;
69170;SDS011;56279;47.902;12.308;2023-05-07T05:53:46;5.10;;;3.50;;
69170;SDS011;56279;47.902;12.308;2023-05-07T05:55:48;5.95;;;3.20;;
69170;SDS011;56279;47.902;12.308;2023-05-07T05:57:51;5.70;;;3.53;;
69170;SDS011;56279;47.902;12.308;2023-05-07T05:59:52;5.38;;;3.50;;
69170;SDS011;56279;47.902;12.308;2023-05-07T06:01:54;5.80;;;3.50;;
69170;SDS011;56279;47.902;12.308;2023-05-07T06:03:56;7.53;;;3.85;;
69170;SDS011;56279;47.902;12.308;2023-05-07T06:05:58;5.78;;;3.47;;
69170;SDS011;56279;47.902;12.308;2023-05-07T06:08:01;6.27;;;3.70;;
69170;SDS011;56279;47.902;12.308;2023-05-07T06:10:11;6.10;;;3.53;;
69170;SDS011;56279;47.902;12.308;2023-05-07T06:12:13;7.75;;;3.90;;
69170;SDS011;56279;47.902;12.308;2023-05-07T06:14:14;5.55;;;3.40;;
69170;SDS011;56279;47.902;12.308;2023-05-07T06:16:15;5.47;;;3.28;;
69170;SDS011;56279;47.902;12.308;2023-05-07T06:18:17;5.27;;;3.13;;
69170;SDS011;56279;47.902;12.308;2023-05-07T06:20:18;5.32;;;3.63;;
69170;SDS011;56279;47.902;12.308;2023-05-07T06:22:20;5.80;;;3.40;;
69170;SDS011;56279;47.902;12.308;2023-05-07T06:24:21;7.13;;;3.08;;
69170;SDS011;56279;47.902;12.308;2023-05-07T06:26:23;5.15;;;3.28;;
69170;SDS011;56279;47.902;12.308;2023-05-07T06:28:24;4.83;;;3.57;;
69170;SDS011;56279;47.902;12.308;2023-05-07T06:30:26;5.35;;;3.47;;
69170;SDS011;56279;47.902;12.308;2023-05-07T06:32:29;4.93;;;3.10;;
69170;SDS011;56279;47.902;12.308;2023-05-07T06:34:30;5.72;;;3.47;;
69170;SDS011;56279;47.902;12.308;2023-05-07T06:36:32;5.07;;;3.08;;
69170;SDS011;56279;47.902;12.308;2023-05-07T06:38:37;5.03;;;3.13;;
69170;SDS011;56279;47.902;12.308;2023-05-07T06:40:38;5.35;;;3.30;;
69170;SDS011;56279;47.902;12.308;2023-05-07T06:42:39;5.28;;;3.20;;
69170;SDS011;56279;47.902;12.308;2023-05-07T06:45:09;5.78;;;3.40;;
69170;SDS011;56279;47.902;12.308;2023-05-07T06:47:11;7.82;;;3.38;;
69170;SDS011;56279;47.902;12.308;2023-05-07T06:49:14;5.87;;;3.27;;
69170;SDS011;56279;47.902;12.308;2023-05-07T06:51:16;5.60;;;3.35;;
69170;SDS011;56279;47.902;12.308;2023-05-07T06:53:17;5.50;;;3.05;;
69170;SDS011;56279;47.902;12.308;2023-05-07T06:55:19;6.78;;;3.22;;
69170;SDS011;56279;47.902;12.308;2023-05-07T06:57:21;4.85;;;3.13;;
69170;SDS011;56279;47.902;12.308;2023-05-07T06:59:23;5.90;;;3.03;;
69170;SDS011;56279;47.902;12.308;2023-05-07T07:01:25;6.50;;;3.30;;
69170;SDS011;56279;47.902;12.308;2023-05-07T07:03:26;6.38;;;3.28;;
69170;SDS011;56279;47.902;12.308;2023-05-07T07:05:30;5.22;;;3.17;;
69170;SDS011;56279;47.902;12.308;2023-05-07T07:07:32;4.65;;;2.85;;
69170;SDS011;56279;47.902;12.308;2023-05-07T07:09:34;5.37;;;2.50;;
69170;SDS011;56279;47.902;12.308;2023-05-07T07:11:36;4.18;;;2.22;;
69170;SDS011;56279;47.902;12.308;2023-05-07T07:13:39;4.38;;;2.55;;
69170;SDS011;56279;47.902;12.308;2023-05-07T07:15:41;3.58;;;2.28;;
69170;SDS011;56279;47.902;12.308;2023-05-07T07:17:43;4.15;;;2.70;;
69170;SDS011;56279;47.902;12.308;2023-05-07T07:19:44;3.80;;;2.40;;
69170;SDS011;56279;47.902;12.308;2023-05-07T07:21:45;4.95;;;2.40;;
69170;SDS011;56279;47.902;12.308;2023-05-07T07:23:48;5.68;;;2.40;;
69170;SDS011;56279;47.902;12.308;2023-05-07T07:25:51;4.85;;;2.60;;
69170;SDS011;56279;47.902;12.308;2023-05-07T07:27:52;2.97;;;2.08;;
69170;SDS011;56279;47.902;12.308;2023-05-07T07:29:55;6.20;;;2.30;;
69170;SDS011;56279;47.902;12.308;2023-05-07T07:31:58;4.63;;;2.10;;
69170;SDS011;56279;47.902;12.308;2023-05-07T07:33:59;3.65;;;2.20;;
69170;SDS011;56279;47.902;12.308;2023-05-07T07:36:02;5.15;;;2.83;;
69170;SDS011;56279;47.902;12.308;2023-05-07T07:38:04;4.32;;;2.50;;
69170;SDS011;56279;47.902;12.308;2023-05-07T07:40:06;3.57;;;2.30;;
69170;SDS011;56279;47.902;12.308;2023-05-07T07:42:08;4.75;;;2.55;;
69170;SDS011;56279;47.902;12.308;2023-05-07T07:44:10;3.95;;;2.55;;
69170;SDS011;56279;47.902;12.308;2023-05-07T07:46:14;5.07;;;2.78;;
69170;SDS011;56279;47.902;12.308;2023-05-07T07:48:16;4.70;;;2.45;;
69170;SDS011;56279;47.902;12.308;2023-05-07T07:50:18;5.33;;;2.90;;
69170;SDS011;56279;47.902;12.308;2023-05-07T07:52:20;5.93;;;2.40;;
69170;SDS011;56279;47.902;12.308;2023-05-07T07:54:21;9.43;;;3.00;;
69170;SDS011;56279;47.902;12.308;2023-05-07T07:56:23;3.78;;;2.63;;
69170;SDS011;56279;47.902;12.308;2023-05-07T07:58:24;4.07;;;2.35;;
69170;SDS011;56279;47.902;12.308;2023-05-07T08:00:26;3.53;;;2.30;;
69170;SDS011;56279;47.902;12.308;2023-05-07T08:02:30;4.25;;;2.50;;
69170;SDS011;56279;47.902;12.308;2023-05-07T08:04:33;5.22;;;2.60;;
69170;SDS011;56279;47.902;12.308;2023-05-07T08:06:38;4.88;;;2.40;;
69170;SDS011;56279;47.902;12.308;2023-05-07T08:08:39;5.28;;;2.60;;
69170;SDS011;56279;47.902;12.308;2023-05-07T08:10:41;4.70;;;2.77;;
69170;SDS011;56279;47.902;12.308;2023-05-07T08:12:50;4.60;;;2.38;;
69170;SDS011;56279;47.902;12.308;2023-05-07T08:14:51;3.72;;;2.22;;
69170;SDS011;56279;47.902;12.308;2023-05-07T08:16:53;3.53;;;2.20;;
69170;SDS011;56279;47.902;12.308;2023-05-07T08:18:55;4.10;;;2.40;;
69170;SDS011;56279;47.902;12.308;2023-05-07T08:20:56;3.57;;;2.13;;
69170;SDS011;56279;47.902;12.308;2023-05-07T08:23:01;5.72;;;2.42;;
69170;SDS011;56279;47.902;12.308;2023-05-07T08:25:02;4.63;;;2.60;;
69170;SDS011;56279;47.902;12.308;2023-05-07T08:27:04;5.90;;;2.58;;
69170;SDS011;56279;47.902;12.308;2023-05-07T08:29:06;4.78;;;2.60;;
69170;SDS011;56279;47.902;12.308;2023-05-07T08:31:07;4.40;;;2.50;;
69170;SDS011;56279;47.902;12.308;2023-05-07T08:33:11;4.20;;;2.40;;
69170;SDS011;56279;47.902;12.308;2023-05-07T08:35:13;6.57;;;2.33;;
69170;SDS011;56279;47.902;12.308;2023-05-07T08:37:14;4.50;;;2.72;;
69170;SDS011;56279;47.902;12.308;2023-05-07T08:39:16;4.55;;;2.60;;
69170;SDS011;56279;47.902;12.308;2023-05-07T08:41:19;5.00;;;2.20;;
69170;SDS011;56279;47.902;12.308;2023-05-07T08:43:22;4.25;;;2.45;;
69170;SDS011;56279;47.902;12.308;2023-05-07T08:45:27;6.88;;;2.53;;
69170;SDS011;56279;47.902;12.308;2023-05-07T08:47:34;8.82;;;2.72;;
69170;SDS011;56279;47.902;12.308;2023-05-07T08:49:39;5.13;;;2.40;;
69170;SDS011;56279;47.902;12.308;2023-05-07T08:51:42;5.23;;;2.43;;
69170;SDS011;56279;47.902;12.308;2023-05-07T08:53:44;5.43;;;2.80;;
69170;SDS011;56279;47.902;12.308;2023-05-07T08:55:51;4.40;;;2.72;;
69170;SDS011;56279;47.902;12.308;2023-05-07T08:57:54;5.45;;;2.80;;
69170;SDS011;56279;47.902;12.308;2023-05-07T08:59:56;5.45;;;2.80;;
69170;SDS011;56279;47.902;12.308;2023-05-07T09:01:59;3.97;;;2.80;;
69170;SDS011;56279;47.902;12.308;2023-05-07T09:04:01;6.28;;;2.75;;
69170;SDS011;56279;47.902;12.308;2023-05-07T09:06:04;4.50;;;2.92;;
69170;SDS011;56279;47.902;12.308;2023-05-07T09:08:06;4.53;;;2.50;;
69170;SDS011;56279;47.902;12.308;2023-05-07T09:10:11;4.13;;;2.50;;
69170;SDS011;56279;47.902;12.308;2023-05-07T09:12:14;4.80;;;2.40;;
69170;SDS011;56279;47.902;12.308;2023-05-07T09:14:15;4.90;;;2.47;;
69170;SDS011;56279;47.902;12.308;2023-05-07T09:16:20;4.00;;;2.50;;
69170;SDS011;56279;47.902;12.308;2023-05-07T09:18:26;4.78;;;2.03;;
69170;SDS011;56279;47.902;12.308;2023-05-07T09:20:29;5.88;;;2.50;;
69170;SDS011;56279;47.902;12.308;2023-05-07T09:22:31;3.77;;;2.13;;
69170;SDS011;56279;47.902;12.308;2023-05-07T09:24:37;6.00;;;2.83;;
69170;SDS011;56279;47.902;12.308;2023-05-07T09:26:41;3.83;;;1.98;;
69170;SDS011;56279;47.902;12.308;2023-05-07T09:28:43;5.10;;;2.75;;
69170;SDS011;56279;47.902;12.308;2023-05-07T09:30:48;4.15;;;1.92;;
69170;SDS011;56279;47.902;12.308;2023-05-07T09:32:50;5.37;;;2.50;;
69170;SDS011;56279;47.902;12.308;2023-05-07T09:34:55;4.97;;;2.10;;
69170;SDS011;56279;47.902;12.308;2023-05-07T09:36:59;4.00;;;2.33;;
69170;SDS011;56279;47.902;12.308;2023-05-07T09:39:02;5.53;;;2.30;;
69170;SDS011;56279;47.902;12.308;2023-05-07T09:41:04;3.40;;;2.10;;
69170;SDS011;56279;47.902;12.308;2023-05-07T09:43:13;3.77;;;2.17;;
69170;SDS011;56279;47.902;12.308;2023-05-07T09:45:27;5.47;;;2.42;;
69170;SDS011;56279;47.902;12.308;2023-05-07T09:47:32;3.75;;;2.17;;
69170;SDS011;56279;47.902;12.308;2023-05-07T09:49:38;4.40;;;2.47;;
69170;SDS011;56279;47.902;12.308;2023-05-07T09:51:53;5.80;;;2.83;;
69170;SDS011;56279;47.902;12.308;2023-05-07T09:54:01;3.30;;;2.00;;
69170;SDS011;56279;47.902;12.308;2023-05-07T09:56:05;5.50;;;2.10;;
69170;SDS011;56279;47.902;12.308;2023-05-07T09:58:07;3.40;;;2.10;;
69170;SDS011;56279;47.902;12.308;2023-05-07T10:00:08;3.10;;;1.90;;
69170;SDS011;56279;47.902;12.308;2023-05-07T10:02:23;3.50;;;2.30;;
69170;SDS011;56279;47.902;12.308;2023-05-07T10:04:28;4.73;;;2.33;;
69170;SDS011;56279;47.902;12.308;2023-05-07T10:06:31;4.30;;;2.60;;
69170;SDS011;56279;47.902;12.308;2023-05-07T10:08:35;3.47;;;2.10;;
69170;SDS011;56279;47.902;12.308;2023-05-07T10:10:37;7.90;;;2.10;;
69170;SDS011;56279;47.902;12.308;2023-05-07T10:12:42;5.25;;;2.35;;
69170;SDS011;56279;47.902;12.308;2023-05-07T10:14:50;3.37;;;2.10;;
69170;SDS011;56279;47.902;12.308;2023-05-07T10:16:53;4.05;;;2.30;;
69170;SDS011;56279;47.902;12.308;2023-05-07T10:18:56;3.63;;;2.17;;
69170;SDS011;56279;47.902;12.308;2023-05-07T10:21:04;4.72;;;2.58;;
69170;SDS011;56279;47.902;12.308;2023-05-07T10:23:09;5.57;;;2.30;;
69170;SDS011;56279;47.902;12.308;2023-05-07T10:25:21;3.60;;;2.00;;
69170;SDS011;56279;47.902;12.308;2023-05-07T10:27:27;5.18;;;2.10;;
69170;SDS011;56279;47.902;12.308;2023-05-07T10:31:55;4.82;;;2.38;;
69170;SDS011;56279;47.902;12.308;2023-05-07T10:34:13;5.55;;;2.83;;
69170;SDS011;56279;47.902;12.308;2023-05-07T10:36:21;4.07;;;2.03;;
69170;SDS011;56279;47.902;12.308;2023-05-07T10:38:26;4.95;;;2.60;;
69170;SDS011;56279;47.902;12.308;2023-05-07T10:40:29;6.47;;;2.50;;
69170;SDS011;56279;47.902;12.308;2023-05-07T10:42:32;5.30;;;2.33;;
69170;SDS011;56279;47.902;12.308;2023-05-07T10:44:33;3.65;;;2.25;;
69170;SDS011;56279;47.902;12.308;2023-05-07T10:46:41;4.90;;;2.30;;
69170;SDS011;56279;47.902;12.308;2023-05-07T10:51:21;4.50;;;2.22;;
69170;SDS011;56279;47.902;12.308;2023-05-07T10:53:27;4.30;;;2.10;;
69170;SDS011;56279;47.902;12.308;2023-05-07T10:55:48;3.60;;;2.15;;
69170;SDS011;56279;47.902;12.308;2023-05-07T11:03:04;3.83;;;2.17;;
69170;SDS011;56279;47.902;12.308;2023-05-07T11:05:19;4.07;;;2.05;;
69170;SDS011;56279;47.902;12.308;2023-05-07T11:07:28;4.38;;;2.20;;
69170;SDS011;56279;47.902;12.308;2023-05-07T11:09:54;3.20;;;1.97;;
69170;SDS011;56279;47.902;12.308;2023-05-07T11:12:08;5.38;;;2.53;;
69170;SDS011;56279;47.902;12.308;2023-05-07T11:16:47;3.70;;;2.20;;
69170;SDS011;56279;47.902;12.308;2023-05-07T11:18:57;3.95;;;2.42;;
69170;SDS011;56279;47.902;12.308;2023-05-07T11:21:06;4.43;;;2.20;;
69170;SDS011;56279;47.902;12.308;2023-05-07T11:25:44;3.88;;;2.30;;
69170;SDS011;56279;47.902;12.308;2023-05-07T11:27:52;4.28;;;2.42;;
69170;SDS011;56279;47.902;12.308;2023-05-07T11:29:54;5.47;;;2.30;;
69170;SDS011;56279;47.902;12.308;2023-05-07T11:31:56;4.57;;;2.30;;
69170;SDS011;56279;47.902;12.308;2023-05-07T11:34:02;3.78;;;2.13;;
69170;SDS011;56279;47.902;12.308;2023-05-07T11:36:04;3.20;;;1.95;;
69170;SDS011;56279;47.902;12.308;2023-05-07T11:38:12;6.68;;;2.22;;
69170;SDS011;56279;47.902;12.308;2023-05-07T11:40:15;3.25;;;2.28;;
69170;SDS011;56279;47.902;12.308;2023-05-07T11:42:27;3.97;;;2.20;;
69170;SDS011;56279;47.902;12.308;2023-05-07T11:44:42;5.95;;;2.00;;
69170;SDS011;56279;47.902;12.308;2023-05-07T11:46:44;4.70;;;2.40;;
69170;SDS011;56279;47.902;12.308;2023-05-07T11:48:46;4.57;;;2.08;;
69170;SDS011;56279;47.902;12.308;2023-05-07T11:50:50;4.57;;;2.03;;
69170;SDS011;56279;47.902;12.308;2023-05-07T11:52:53;4.37;;;2.27;;
69170;SDS011;56279;47.902;12.308;2023-05-07T11:54:55;5.30;;;2.50;;
69170;SDS011;56279;47.902;12.308;2023-05-07T11:56:57;4.63;;;2.38;;
69170;SDS011;56279;47.902;12.308;2023-05-07T11:59:00;4.82;;;2.42;;
69170;SDS011;56279;47.902;12.308;2023-05-07T12:01:01;6.22;;;2.60;;
69170;SDS011;56279;47.902;12.308;2023-05-07T12:03:04;5.60;;;2.50;;
69170;SDS011;56279;47.902;12.308;2023-05-07T12:05:06;4.35;;;2.40;;
69170;SDS011;56279;47.902;12.308;2023-05-07T12:07:14;4.68;;;2.30;;
69170;SDS011;56279;47.902;12.308;2023-05-07T12:09:16;4.55;;;2.30;;
69170;SDS011;56279;47.902;12.308;2023-05-07T12:11:24;3.78;;;2.30;;
69170;SDS011;56279;47.902;12.308;2023-05-07T12:13:26;4.40;;;2.27;;
69170;SDS011;56279;47.902;12.308;2023-05-07T12:15:27;3.78;;;2.28;;
69170;SDS011;56279;47.902;12.308;2023-05-07T12:17:29;5.10;;;2.50;;
69170;SDS011;56279;47.902;12.308;2023-05-07T12:19:30;3.53;;;2.20;;
69170;SDS011;56279;47.902;12.308;2023-05-07T12:21:32;4.82;;;2.33;;
69170;SDS011;56279;47.902;12.308;2023-05-07T12:23:35;3.87;;;2.20;;
69170;SDS011;56279;47.902;12.308;2023-05-07T12:25:38;5.82;;;2.30;;
69170;SDS011;56279;47.902;12.308;2023-05-07T12:27:40;2.83;;;2.00;;
69170;SDS011;56279;47.902;12.308;2023-05-07T12:29:46;3.88;;;2.40;;